sensor_id;sensor_type;location;lat;lon;timestamp;P1;durP1;ratioP1;P2;durP2;ratioP2
10711;SDS011;5407;51.234;6.804;2023-04-03T00:01:35;1.67;;;1.42;;
10711;SDS011;5407;51.234;6.804;2023-04-03T00:04:03;1.30;;;1.20;;
10711;SDS011;5407;51.234;6.804;2023-04-03T00:06:30;1.30;;;1.20;;
10711;SDS011;5407;51.234;6.804;2023-04-03T00:08:57;1.30;;;1.20;;
10711;SDS011;5407;51.234;6.804;2023-04-03T00:11:24;1.33;;;1.23;;
10711;SDS011;5407;51.234;6.804;2023-04-03T00:13:52;1.30;;;1.20;;
10711;SDS011;5407;51.234;6.804;2023-04-03T00:16:19;1.30;;;1.20;;
10711;SDS011;5407;51.234;6.804;2023-04-03T00:18:46;1.48;;;1.38;;
10711;SDS011;5407;51.234;6.804;2023-04-03T00:21:13;1.42;;;1.20;;
10711;SDS011;5407;51.234;6.804;2023-04-03T00:23:40;1.20;;;1.20;;
10711;SDS011;5407;51.234;6.804;2023-04-03T00:26:07;1.83;;;1.30;;
10711;SDS011;5407;51.234;6.804;2023-04-03T00:28:35;1.52;;;1.30;;
10711;SDS011;5407;51.234;6.804;2023-04-03T00:31:03;1.33;;;1.20;;
10711;SDS011;5407;51.234;6.804;2023-04-03T00:33:30;1.98;;;1.50;;
10711;SDS011;5407;51.234;6.804;2023-04-03T00:35:57;1.30;;;1.20;;
10711;SDS011;5407;51.234;6.804;2023-04-03T00:38:24;1.65;;;1.25;;
10711;SDS011;5407;51.234;6.804;2023-04-03T00:40:51;1.30;;;1.20;;
10711;SDS011;5407;51.234;6.804;2023-04-03T00:43:19;1.13;;;1.10;;
10711;SDS011;5407;51.234;6.804;2023-04-03T00:45:47;1.23;;;1.15;;
10711;SDS011;5407;51.234;6.804;2023-04-03T00:48:17;1.60;;;1.30;;
10711;SDS011;5407;51.234;6.804;2023-04-03T00:50:46;1.30;;;1.20;;
10711;SDS011;5407;51.234;6.804;2023-04-03T00:53:14;1.30;;;1.20;;
10711;SDS011;5407;51.234;6.804;2023-04-03T00:55:44;1.42;;;1.33;;
10711;SDS011;5407;51.234;6.804;2023-04-03T00:58:13;1.25;;;1.15;;
10711;SDS011;5407;51.234;6.804;2023-04-03T01:00:42;2.00;;;1.33;;
10711;SDS011;5407;51.234;6.804;2023-04-03T01:03:13;1.85;;;1.30;;
10711;SDS011;5407;51.234;6.804;2023-04-03T01:05:41;1.30;;;1.20;;
10711;SDS011;5407;51.234;6.804;2023-04-03T01:08:08;1.52;;;1.30;;
10711;SDS011;5407;51.234;6.804;2023-04-03T01:10:35;1.08;;;1.05;;
10711;SDS011;5407;51.234;6.804;2023-04-03T01:13:02;1.45;;;1.33;;
10711;SDS011;5407;51.234;6.804;2023-04-03T01:15:45;1.63;;;1.20;;
10711;SDS011;5407;51.234;6.804;2023-04-03T01:18:12;1.23;;;1.13;;
10711;SDS011;5407;51.234;6.804;2023-04-03T01:23:53;1.30;;;1.20;;
10711;SDS011;5407;51.234;6.804;2023-04-03T01:26:31;1.00;;;1.00;;
10711;SDS011;5407;51.234;6.804;2023-04-03T01:28:59;1.20;;;1.10;;
10711;SDS011;5407;51.234;6.804;2023-04-03T01:31:27;1.13;;;1.13;;
10711;SDS011;5407;51.234;6.804;2023-04-03T01:33:59;1.20;;;1.13;;
10711;SDS011;5407;51.234;6.804;2023-04-03T01:36:29;1.27;;;1.17;;
10711;SDS011;5407;51.234;6.804;2023-04-03T01:38:57;1.20;;;1.10;;
10711;SDS011;5407;51.234;6.804;2023-04-03T01:41:26;1.98;;;1.20;;
10711;SDS011;5407;51.234;6.804;2023-04-03T01:44:00;1.25;;;1.15;;
10711;SDS011;5407;51.234;6.804;2023-04-03T01:46:27;1.55;;;1.40;;
10711;SDS011;5407;51.234;6.804;2023-04-03T01:48:54;1.40;;;1.30;;
10711;SDS011;5407;51.234;6.804;2023-04-03T01:51:22;1.40;;;1.20;;
10711;SDS011;5407;51.234;6.804;2023-04-03T01:53:49;1.17;;;1.08;;
10711;SDS011;5407;51.234;6.804;2023-04-03T01:56:16;1.15;;;1.10;;
10711;SDS011;5407;51.234;6.804;2023-04-03T01:58:44;1.48;;;1.23;;
10711;SDS011;5407;51.234;6.804;2023-04-03T02:01:11;1.63;;;1.30;;
10711;SDS011;5407;51.234;6.804;2023-04-03T02:03:38;1.20;;;1.10;;
10711;SDS011;5407;51.234;6.804;2023-04-03T02:06:05;1.30;;;1.20;;
10711;SDS011;5407;51.234;6.804;2023-04-03T02:08:33;1.30;;;1.20;;
10711;SDS011;5407;51.234;6.804;2023-04-03T02:11:00;1.27;;;1.10;;
10711;SDS011;5407;51.234;6.804;2023-04-03T02:13:27;1.30;;;1.20;;
10711;SDS011;5407;51.234;6.804;2023-04-03T02:15:54;1.20;;;1.10;;
10711;SDS011;5407;51.234;6.804;2023-04-03T02:18:21;1.20;;;1.10;;
10711;SDS011;5407;51.234;6.804;2023-04-03T02:20:48;1.30;;;1.20;;
10711;SDS011;5407;51.234;6.804;2023-04-03T02:23:15;1.13;;;1.02;;
10711;SDS011;5407;51.234;6.804;2023-04-03T02:25:44;1.23;;;1.13;;
10711;SDS011;5407;51.234;6.804;2023-04-03T02:28:11;1.23;;;1.13;;
10711;SDS011;5407;51.234;6.804;2023-04-03T02:30:38;1.10;;;1.10;;
10711;SDS011;5407;51.234;6.804;2023-04-03T02:33:05;1.55;;;1.17;;
10711;SDS011;5407;51.234;6.804;2023-04-03T02:35:32;1.42;;;1.27;;
10711;SDS011;5407;51.234;6.804;2023-04-03T02:37:59;1.20;;;1.10;;
10711;SDS011;5407;51.234;6.804;2023-04-03T02:40:26;1.40;;;1.30;;
10711;SDS011;5407;51.234;6.804;2023-04-03T02:42:54;1.35;;;1.20;;
10711;SDS011;5407;51.234;6.804;2023-04-03T02:45:23;1.70;;;1.40;;
10711;SDS011;5407;51.234;6.804;2023-04-03T02:47:50;1.02;;;1.02;;
10711;SDS011;5407;51.234;6.804;2023-04-03T02:50:17;1.25;;;1.15;;
10711;SDS011;5407;51.234;6.804;2023-04-03T02:52:44;1.10;;;1.10;;
10711;SDS011;5407;51.234;6.804;2023-04-03T02:55:13;1.30;;;1.20;;
10711;SDS011;5407;51.234;6.804;2023-04-03T02:57:40;1.13;;;1.02;;
10711;SDS011;5407;51.234;6.804;2023-04-03T03:00:09;1.95;;;1.30;;
10711;SDS011;5407;51.234;6.804;2023-04-03T03:02:37;1.50;;;1.23;;
10711;SDS011;5407;51.234;6.804;2023-04-03T03:05:04;1.23;;;1.13;;
10711;SDS011;5407;51.234;6.804;2023-04-03T03:07:32;1.30;;;1.20;;
10711;SDS011;5407;51.234;6.804;2023-04-03T03:09:59;1.30;;;1.00;;
10711;SDS011;5407;51.234;6.804;2023-04-03T03:12:26;1.40;;;1.30;;
10711;SDS011;5407;51.234;6.804;2023-04-03T03:14:55;0.93;;;0.93;;
10711;SDS011;5407;51.234;6.804;2023-04-03T03:17:23;1.20;;;1.20;;
10711;SDS011;5407;51.234;6.804;2023-04-03T03:19:50;1.65;;;1.30;;
10711;SDS011;5407;51.234;6.804;2023-04-03T03:22:16;1.25;;;1.20;;
10711;SDS011;5407;51.234;6.804;2023-04-03T03:24:44;1.17;;;1.08;;
10711;SDS011;5407;51.234;6.804;2023-04-03T03:27:11;1.23;;;1.13;;
10711;SDS011;5407;51.234;6.804;2023-04-03T03:29:38;1.58;;;1.40;;
10711;SDS011;5407;51.234;6.804;2023-04-03T03:32:05;1.30;;;1.20;;
10711;SDS011;5407;51.234;6.804;2023-04-03T03:34:33;1.30;;;1.20;;
10711;SDS011;5407;51.234;6.804;2023-04-03T03:37:01;1.77;;;1.20;;
10711;SDS011;5407;51.234;6.804;2023-04-03T03:39:28;1.60;;;1.10;;
10711;SDS011;5407;51.234;6.804;2023-04-03T03:41:56;1.65;;;1.30;;
10711;SDS011;5407;51.234;6.804;2023-04-03T03:44:23;1.30;;;1.20;;
10711;SDS011;5407;51.234;6.804;2023-04-03T03:46:52;1.35;;;1.25;;
10711;SDS011;5407;51.234;6.804;2023-04-03T03:49:19;1.17;;;1.08;;
10711;SDS011;5407;51.234;6.804;2023-04-03T03:51:47;1.48;;;1.20;;
10711;SDS011;5407;51.234;6.804;2023-04-03T03:54:15;1.10;;;1.00;;
10711;SDS011;5407;51.234;6.804;2023-04-03T03:56:42;1.30;;;1.20;;
10711;SDS011;5407;51.234;6.804;2023-04-03T03:59:11;1.33;;;1.23;;
10711;SDS011;5407;51.234;6.804;2023-04-03T04:01:38;1.40;;;1.00;;
10711;SDS011;5407;51.234;6.804;2023-04-03T04:04:05;1.20;;;1.10;;
10711;SDS011;5407;51.234;6.804;2023-04-03T04:06:32;1.13;;;1.02;;
10711;SDS011;5407;51.234;6.804;2023-04-03T04:09:04;1.17;;;1.08;;
10711;SDS011;5407;51.234;6.804;2023-04-03T04:11:31;1.30;;;1.17;;
10711;SDS011;5407;51.234;6.804;2023-04-03T04:13:59;1.15;;;1.10;;
10711;SDS011;5407;51.234;6.804;2023-04-03T04:16:28;1.75;;;1.23;;
10711;SDS011;5407;51.234;6.804;2023-04-03T04:18:58;1.30;;;1.10;;
10711;SDS011;5407;51.234;6.804;2023-04-03T04:21:25;1.23;;;1.00;;
10711;SDS011;5407;51.234;6.804;2023-04-03T04:23:53;1.30;;;1.20;;
10711;SDS011;5407;51.234;6.804;2023-04-03T04:26:21;1.33;;;1.23;;
10711;SDS011;5407;51.234;6.804;2023-04-03T04:28:48;1.30;;;1.20;;
10711;SDS011;5407;51.234;6.804;2023-04-03T04:31:17;1.38;;;1.20;;
10711;SDS011;5407;51.234;6.804;2023-04-03T04:33:44;1.15;;;1.10;;
10711;SDS011;5407;51.234;6.804;2023-04-03T04:36:13;1.05;;;1.00;;
10711;SDS011;5407;51.234;6.804;2023-04-03T04:38:42;1.65;;;1.27;;
10711;SDS011;5407;51.234;6.804;2023-04-03T04:41:10;1.10;;;1.00;;
10711;SDS011;5407;51.234;6.804;2023-04-03T04:43:38;1.30;;;1.20;;
10711;SDS011;5407;51.234;6.804;2023-04-03T04:46:05;1.52;;;1.15;;
10711;SDS011;5407;51.234;6.804;2023-04-03T04:48:38;1.15;;;1.05;;
10711;SDS011;5407;51.234;6.804;2023-04-03T04:51:05;1.27;;;1.17;;
10711;SDS011;5407;51.234;6.804;2023-04-03T04:53:34;1.27;;;1.17;;
10711;SDS011;5407;51.234;6.804;2023-04-03T04:56:01;1.13;;;1.00;;
10711;SDS011;5407;51.234;6.804;2023-04-03T04:58:30;1.40;;;1.10;;
10711;SDS011;5407;51.234;6.804;2023-04-03T05:00:59;1.30;;;1.20;;
10711;SDS011;5407;51.234;6.804;2023-04-03T05:03:27;2.40;;;1.10;;
10711;SDS011;5407;51.234;6.804;2023-04-03T05:05:55;1.40;;;1.30;;
10711;SDS011;5407;51.234;6.804;2023-04-03T05:08:22;2.92;;;1.48;;
10711;SDS011;5407;51.234;6.804;2023-04-03T05:10:49;1.48;;;1.23;;
10711;SDS011;5407;51.234;6.804;2023-04-03T05:13:17;1.45;;;1.10;;
10711;SDS011;5407;51.234;6.804;2023-04-03T05:15:45;1.00;;;1.00;;
10711;SDS011;5407;51.234;6.804;2023-04-03T05:18:13;1.38;;;1.27;;
10711;SDS011;5407;51.234;6.804;2023-04-03T05:20:40;1.38;;;1.25;;
10711;SDS011;5407;51.234;6.804;2023-04-03T05:23:09;1.20;;;1.10;;
10711;SDS011;5407;51.234;6.804;2023-04-03T05:25:37;1.15;;;1.15;;
10711;SDS011;5407;51.234;6.804;2023-04-03T05:28:05;1.30;;;1.20;;
10711;SDS011;5407;51.234;6.804;2023-04-03T05:30:32;1.60;;;1.10;;
10711;SDS011;5407;51.234;6.804;2023-04-03T05:33:01;1.15;;;1.05;;
10711;SDS011;5407;51.234;6.804;2023-04-03T05:35:41;1.20;;;1.10;;
10711;SDS011;5407;51.234;6.804;2023-04-03T05:38:14;1.73;;;1.30;;
10711;SDS011;5407;51.234;6.804;2023-04-03T05:40:42;1.00;;;1.00;;
10711;SDS011;5407;51.234;6.804;2023-04-03T05:43:09;1.70;;;1.38;;
10711;SDS011;5407;51.234;6.804;2023-04-03T05:45:39;1.83;;;1.17;;
10711;SDS011;5407;51.234;6.804;2023-04-03T05:48:06;0.75;;;0.70;;
10711;SDS011;5407;51.234;6.804;2023-04-03T05:50:33;1.35;;;1.00;;
10711;SDS011;5407;51.234;6.804;2023-04-03T05:53:01;1.27;;;1.00;;
10711;SDS011;5407;51.234;6.804;2023-04-03T05:55:31;1.13;;;1.02;;
10711;SDS011;5407;51.234;6.804;2023-04-03T05:57:58;1.30;;;1.15;;
10711;SDS011;5407;51.234;6.804;2023-04-03T06:00:25;1.48;;;1.20;;
10711;SDS011;5407;51.234;6.804;2023-04-03T06:02:59;1.33;;;1.10;;
10711;SDS011;5407;51.234;6.804;2023-04-03T06:05:26;1.20;;;1.10;;
10711;SDS011;5407;51.234;6.804;2023-04-03T06:07:53;1.40;;;1.05;;
10711;SDS011;5407;51.234;6.804;2023-04-03T06:10:22;0.90;;;0.90;;
10711;SDS011;5407;51.234;6.804;2023-04-03T06:12:49;1.08;;;0.98;;
10711;SDS011;5407;51.234;6.804;2023-04-03T06:15:16;1.70;;;1.20;;
10711;SDS011;5407;51.234;6.804;2023-04-03T06:17:43;1.48;;;1.00;;
10711;SDS011;5407;51.234;6.804;2023-04-03T06:20:10;1.50;;;1.10;;
10711;SDS011;5407;51.234;6.804;2023-04-03T06:22:38;1.10;;;1.00;;
10711;SDS011;5407;51.234;6.804;2023-04-03T06:25:07;1.33;;;1.20;;
10711;SDS011;5407;51.234;6.804;2023-04-03T06:27:35;1.73;;;1.20;;
10711;SDS011;5407;51.234;6.804;2023-04-03T06:30:02;1.75;;;1.13;;
10711;SDS011;5407;51.234;6.804;2023-04-03T06:32:30;1.27;;;1.10;;
10711;SDS011;5407;51.234;6.804;2023-04-03T06:34:57;1.77;;;1.25;;
10711;SDS011;5407;51.234;6.804;2023-04-03T06:37:23;1.67;;;1.17;;
10711;SDS011;5407;51.234;6.804;2023-04-03T06:39:53;1.02;;;0.95;;
10711;SDS011;5407;51.234;6.804;2023-04-03T06:42:20;0.95;;;0.95;;
10711;SDS011;5407;51.234;6.804;2023-04-03T06:44:58;1.20;;;1.10;;
10711;SDS011;5407;51.234;6.804;2023-04-03T06:47:25;1.13;;;0.95;;
10711;SDS011;5407;51.234;6.804;2023-04-03T06:49:52;1.73;;;1.20;;
10711;SDS011;5407;51.234;6.804;2023-04-03T06:52:19;1.38;;;1.13;;
10711;SDS011;5407;51.234;6.804;2023-04-03T06:54:46;1.48;;;1.08;;
10711;SDS011;5407;51.234;6.804;2023-04-03T06:57:13;1.17;;;1.08;;
10711;SDS011;5407;51.234;6.804;2023-04-03T06:59:40;1.20;;;1.10;;
10711;SDS011;5407;51.234;6.804;2023-04-03T07:02:09;1.10;;;1.05;;
10711;SDS011;5407;51.234;6.804;2023-04-03T07:04:38;0.93;;;0.93;;
10711;SDS011;5407;51.234;6.804;2023-04-03T07:07:05;0.93;;;0.80;;
10711;SDS011;5407;51.234;6.804;2023-04-03T07:09:31;1.10;;;1.00;;
10711;SDS011;5407;51.234;6.804;2023-04-03T07:11:58;1.27;;;1.00;;
10711;SDS011;5407;51.234;6.804;2023-04-03T07:14:25;1.83;;;0.95;;
10711;SDS011;5407;51.234;6.804;2023-04-03T07:16:52;3.13;;;1.10;;
10711;SDS011;5407;51.234;6.804;2023-04-03T07:19:21;1.20;;;1.10;;
10711;SDS011;5407;51.234;6.804;2023-04-03T07:21:49;1.60;;;1.00;;
10711;SDS011;5407;51.234;6.804;2023-04-03T07:24:16;0.95;;;0.95;;
10711;SDS011;5407;51.234;6.804;2023-04-03T07:26:43;0.85;;;0.85;;
10711;SDS011;5407;51.234;6.804;2023-04-03T07:29:10;1.30;;;1.00;;
10711;SDS011;5407;51.234;6.804;2023-04-03T07:31:38;1.08;;;0.90;;
10711;SDS011;5407;51.234;6.804;2023-04-03T07:34:06;1.50;;;1.10;;
10711;SDS011;5407;51.234;6.804;2023-04-03T07:36:34;1.52;;;1.00;;
10711;SDS011;5407;51.234;6.804;2023-04-03T07:39:01;1.35;;;1.00;;
10711;SDS011;5407;51.234;6.804;2023-04-03T07:41:28;1.20;;;1.10;;
10711;SDS011;5407;51.234;6.804;2023-04-03T07:43:55;1.40;;;1.00;;
10711;SDS011;5407;51.234;6.804;2023-04-03T07:46:22;1.05;;;1.00;;
10711;SDS011;5407;51.234;6.804;2023-04-03T07:48:49;1.33;;;1.00;;
10711;SDS011;5407;51.234;6.804;2023-04-03T07:51:16;1.42;;;1.13;;
10711;SDS011;5407;51.234;6.804;2023-04-03T07:53:44;1.52;;;0.93;;
10711;SDS011;5407;51.234;6.804;2023-04-03T07:56:11;1.25;;;1.05;;
10711;SDS011;5407;51.234;6.804;2023-04-03T07:58:38;1.20;;;1.10;;
10711;SDS011;5407;51.234;6.804;2023-04-03T08:01:05;1.67;;;1.00;;
10711;SDS011;5407;51.234;6.804;2023-04-03T08:03:32;0.80;;;0.80;;
10711;SDS011;5407;51.234;6.804;2023-04-03T08:06:01;0.98;;;0.90;;
10711;SDS011;5407;51.234;6.804;2023-04-03T08:08:30;1.73;;;1.17;;
10711;SDS011;5407;51.234;6.804;2023-04-03T08:11:01;1.10;;;1.00;;
10711;SDS011;5407;51.234;6.804;2023-04-03T08:13:30;1.38;;;1.10;;
10711;SDS011;5407;51.234;6.804;2023-04-03T08:15:58;1.15;;;1.05;;
10711;SDS011;5407;51.234;6.804;2023-04-03T08:18:32;1.00;;;0.90;;
10711;SDS011;5407;51.234;6.804;2023-04-03T08:20:59;3.33;;;1.13;;
10711;SDS011;5407;51.234;6.804;2023-04-03T08:23:26;3.00;;;1.00;;
10711;SDS011;5407;51.234;6.804;2023-04-03T08:25:53;0.80;;;0.80;;
10711;SDS011;5407;51.234;6.804;2023-04-03T08:28:21;1.10;;;0.90;;
10711;SDS011;5407;51.234;6.804;2023-04-03T08:30:48;4.32;;;1.00;;
10711;SDS011;5407;51.234;6.804;2023-04-03T08:33:16;3.63;;;0.90;;
10711;SDS011;5407;51.234;6.804;2023-04-03T08:35:42;2.13;;;1.10;;
10711;SDS011;5407;51.234;6.804;2023-04-03T08:38:09;1.80;;;1.10;;
10711;SDS011;5407;51.234;6.804;2023-04-03T08:40:36;1.20;;;0.95;;
10711;SDS011;5407;51.234;6.804;2023-04-03T08:43:09;1.20;;;1.10;;
10711;SDS011;5407;51.234;6.804;2023-04-03T08:45:57;1.27;;;1.02;;
10711;SDS011;5407;51.234;6.804;2023-04-03T08:48:31;1.13;;;1.02;;
10711;SDS011;5407;51.234;6.804;2023-04-03T08:51:02;1.17;;;1.08;;
10711;SDS011;5407;51.234;6.804;2023-04-03T08:53:39;1.30;;;0.95;;
10711;SDS011;5407;51.234;6.804;2023-04-03T08:56:08;1.35;;;0.98;;
10711;SDS011;5407;51.234;6.804;2023-04-03T08:58:40;2.35;;;1.10;;
10711;SDS011;5407;51.234;6.804;2023-04-03T09:01:15;9.32;;;2.03;;
10711;SDS011;5407;51.234;6.804;2023-04-03T09:03:45;4.88;;;1.52;;
10711;SDS011;5407;51.234;6.804;2023-04-03T09:06:12;3.00;;;1.20;;
10711;SDS011;5407;51.234;6.804;2023-04-03T09:08:43;3.85;;;1.70;;
10711;SDS011;5407;51.234;6.804;2023-04-03T09:11:15;9.02;;;1.90;;
10711;SDS011;5407;51.234;6.804;2023-04-03T09:13:51;6.45;;;1.70;;
10711;SDS011;5407;51.234;6.804;2023-04-03T09:16:28;4.65;;;1.40;;
10711;SDS011;5407;51.234;6.804;2023-04-03T09:19:04;3.08;;;1.20;;
10711;SDS011;5407;51.234;6.804;2023-04-03T09:21:41;3.10;;;1.35;;
10711;SDS011;5407;51.234;6.804;2023-04-03T09:24:09;7.63;;;1.98;;
10711;SDS011;5407;51.234;6.804;2023-04-03T09:26:39;3.53;;;1.40;;
10711;SDS011;5407;51.234;6.804;2023-04-03T09:29:14;2.75;;;1.30;;
10711;SDS011;5407;51.234;6.804;2023-04-03T09:31:46;4.55;;;1.52;;
10711;SDS011;5407;51.234;6.804;2023-04-03T09:34:17;4.47;;;1.63;;
10711;SDS011;5407;51.234;6.804;2023-04-03T09:36:49;13.77;;;2.53;;
10711;SDS011;5407;51.234;6.804;2023-04-03T09:39:18;5.10;;;1.90;;
10711;SDS011;5407;51.234;6.804;2023-04-03T09:41:59;3.03;;;1.38;;
10711;SDS011;5407;51.234;6.804;2023-04-03T09:44:34;3.40;;;1.63;;
10711;SDS011;5407;51.234;6.804;2023-04-03T09:47:17;10.95;;;2.60;;
10711;SDS011;5407;51.234;6.804;2023-04-03T09:49:45;4.05;;;1.80;;
10711;SDS011;5407;51.234;6.804;2023-04-03T09:52:19;5.18;;;1.50;;
10711;SDS011;5407;51.234;6.804;2023-04-03T09:54:48;5.82;;;1.85;;
10711;SDS011;5407;51.234;6.804;2023-04-03T09:57:15;3.85;;;1.60;;
10711;SDS011;5407;51.234;6.804;2023-04-03T09:59:46;25.48;;;2.65;;
10711;SDS011;5407;51.234;6.804;2023-04-03T10:02:33;5.00;;;1.60;;
10711;SDS011;5407;51.234;6.804;2023-04-03T10:05:03;9.75;;;1.63;;
10711;SDS011;5407;51.234;6.804;2023-04-03T10:07:32;10.27;;;1.60;;
10711;SDS011;5407;51.234;6.804;2023-04-03T10:10:02;11.85;;;2.13;;
10711;SDS011;5407;51.234;6.804;2023-04-03T10:12:41;6.78;;;1.65;;
10711;SDS011;5407;51.234;6.804;2023-04-03T10:15:12;7.55;;;1.98;;
10711;SDS011;5407;51.234;6.804;2023-04-03T10:17:43;7.10;;;1.30;;
10711;SDS011;5407;51.234;6.804;2023-04-03T10:20:26;10.18;;;1.80;;
10711;SDS011;5407;51.234;6.804;2023-04-03T10:23:01;4.20;;;1.38;;
10711;SDS011;5407;51.234;6.804;2023-04-03T10:25:42;5.25;;;1.67;;
10711;SDS011;5407;51.234;6.804;2023-04-03T10:28:15;4.85;;;1.20;;
10711;SDS011;5407;51.234;6.804;2023-04-03T10:30:48;2.50;;;1.30;;
10711;SDS011;5407;51.234;6.804;2023-04-03T10:33:26;4.13;;;1.30;;
10711;SDS011;5407;51.234;6.804;2023-04-03T10:36:04;2.67;;;1.20;;
10711;SDS011;5407;51.234;6.804;2023-04-03T10:38:39;2.75;;;1.20;;
10711;SDS011;5407;51.234;6.804;2023-04-03T10:41:16;3.58;;;1.35;;
10711;SDS011;5407;51.234;6.804;2023-04-03T10:43:50;1.38;;;0.93;;
10711;SDS011;5407;51.234;6.804;2023-04-03T10:46:28;2.20;;;1.30;;
10711;SDS011;5407;51.234;6.804;2023-04-03T10:49:05;2.55;;;1.27;;
10711;SDS011;5407;51.234;6.804;2023-04-03T10:51:44;4.13;;;1.48;;
10711;SDS011;5407;51.234;6.804;2023-04-03T10:54:16;3.28;;;1.10;;
10711;SDS011;5407;51.234;6.804;2023-04-03T10:56:48;9.73;;;1.10;;
10711;SDS011;5407;51.234;6.804;2023-04-03T10:59:20;2.35;;;1.27;;
10711;SDS011;5407;51.234;6.804;2023-04-03T11:01:54;2.72;;;1.13;;
10711;SDS011;5407;51.234;6.804;2023-04-03T11:04:23;2.60;;;1.20;;
10711;SDS011;5407;51.234;6.804;2023-04-03T11:06:55;2.10;;;1.00;;
10711;SDS011;5407;51.234;6.804;2023-04-03T11:09:27;2.47;;;0.98;;
10711;SDS011;5407;51.234;6.804;2023-04-03T11:11:58;2.05;;;1.17;;
10711;SDS011;5407;51.234;6.804;2023-04-03T11:14:30;2.63;;;1.15;;
10711;SDS011;5407;51.234;6.804;2023-04-03T11:17:04;3.10;;;1.15;;
10711;SDS011;5407;51.234;6.804;2023-04-03T11:19:39;3.90;;;1.15;;
10711;SDS011;5407;51.234;6.804;2023-04-03T11:22:13;1.50;;;1.13;;
10711;SDS011;5407;51.234;6.804;2023-04-03T11:24:51;2.15;;;1.05;;
10711;SDS011;5407;51.234;6.804;2023-04-03T11:27:24;0.77;;;0.77;;
10711;SDS011;5407;51.234;6.804;2023-04-03T11:29:55;2.97;;;1.05;;
10711;SDS011;5407;51.234;6.804;2023-04-03T11:32:31;1.85;;;1.10;;
10711;SDS011;5407;51.234;6.804;2023-04-03T11:35:08;0.90;;;0.75;;
10711;SDS011;5407;51.234;6.804;2023-04-03T11:37:37;1.95;;;1.00;;
10711;SDS011;5407;51.234;6.804;2023-04-03T11:40:07;1.00;;;0.90;;
10711;SDS011;5407;51.234;6.804;2023-04-03T11:42:46;1.85;;;1.33;;
10711;SDS011;5407;51.234;6.804;2023-04-03T11:45:22;2.45;;;1.10;;
10711;SDS011;5407;51.234;6.804;2023-04-03T11:48:04;2.88;;;1.45;;
10711;SDS011;5407;51.234;6.804;2023-04-03T11:50:40;1.55;;;1.00;;
10711;SDS011;5407;51.234;6.804;2023-04-03T11:55:57;3.55;;;1.10;;
10711;SDS011;5407;51.234;6.804;2023-04-03T11:58:26;1.15;;;0.90;;
10711;SDS011;5407;51.234;6.804;2023-04-03T12:00:59;1.30;;;0.93;;
10711;SDS011;5407;51.234;6.804;2023-04-03T12:12:57;1.15;;;0.85;;
10711;SDS011;5407;51.234;6.804;2023-04-03T12:18:36;1.60;;;1.15;;
10711;SDS011;5407;51.234;6.804;2023-04-03T12:21:08;1.27;;;1.00;;
10711;SDS011;5407;51.234;6.804;2023-04-03T12:23:35;3.20;;;1.10;;
10711;SDS011;5407;51.234;6.804;2023-04-03T12:26:24;3.00;;;2.47;;
10711;SDS011;5407;51.234;6.804;2023-04-03T12:28:53;5.10;;;2.03;;
10711;SDS011;5407;51.234;6.804;2023-04-03T12:31:22;3.70;;;1.25;;
10711;SDS011;5407;51.234;6.804;2023-04-03T12:33:57;2.10;;;1.50;;
10711;SDS011;5407;51.234;6.804;2023-04-03T12:36:37;2.20;;;1.30;;
10711;SDS011;5407;51.234;6.804;2023-04-03T12:42:24;1.58;;;1.15;;
10711;SDS011;5407;51.234;6.804;2023-04-03T12:45:16;1.85;;;1.30;;
10711;SDS011;5407;51.234;6.804;2023-04-03T12:47:45;1.70;;;1.40;;
10711;SDS011;5407;51.234;6.804;2023-04-03T12:50:17;17.98;;;1.58;;
10711;SDS011;5407;51.234;6.804;2023-04-03T12:52:50;5.95;;;1.20;;
10711;SDS011;5407;51.234;6.804;2023-04-03T12:55:22;4.78;;;1.33;;
10711;SDS011;5407;51.234;6.804;2023-04-03T12:57:50;2.33;;;1.20;;
10711;SDS011;5407;51.234;6.804;2023-04-03T13:03:04;2.00;;;1.20;;
10711;SDS011;5407;51.234;6.804;2023-04-03T13:05:33;1.90;;;1.40;;
10711;SDS011;5407;51.234;6.804;2023-04-03T13:08:02;2.75;;;1.38;;
10711;SDS011;5407;51.234;6.804;2023-04-03T13:10:30;2.30;;;1.02;;
10711;SDS011;5407;51.234;6.804;2023-04-03T13:13:08;1.60;;;1.20;;
10711;SDS011;5407;51.234;6.804;2023-04-03T13:15:43;1.58;;;1.10;;
10711;SDS011;5407;51.234;6.804;2023-04-03T13:18:27;2.00;;;1.00;;
10711;SDS011;5407;51.234;6.804;2023-04-03T13:20:59;2.78;;;1.40;;
10711;SDS011;5407;51.234;6.804;2023-04-03T13:23:29;0.95;;;0.90;;
10711;SDS011;5407;51.234;6.804;2023-04-03T13:25:56;3.67;;;1.25;;
10711;SDS011;5407;51.234;6.804;2023-04-03T13:28:30;1.15;;;1.05;;
10711;SDS011;5407;51.234;6.804;2023-04-03T13:31:02;1.25;;;1.10;;
10711;SDS011;5407;51.234;6.804;2023-04-03T13:33:35;1.25;;;1.15;;
10711;SDS011;5407;51.234;6.804;2023-04-03T13:36:04;1.17;;;0.90;;
10711;SDS011;5407;51.234;6.804;2023-04-03T13:38:34;1.40;;;1.00;;
10711;SDS011;5407;51.234;6.804;2023-04-03T13:41:03;1.25;;;1.08;;
10711;SDS011;5407;51.234;6.804;2023-04-03T13:43:33;1.17;;;0.73;;
10711;SDS011;5407;51.234;6.804;2023-04-03T13:46:04;0.80;;;0.80;;
10711;SDS011;5407;51.234;6.804;2023-04-03T13:48:49;1.23;;;0.93;;
10711;SDS011;5407;51.234;6.804;2023-04-03T13:51:19;0.88;;;0.88;;
10711;SDS011;5407;51.234;6.804;2023-04-03T13:53:50;1.00;;;0.90;;
10711;SDS011;5407;51.234;6.804;2023-04-03T13:56:21;0.85;;;0.85;;
10711;SDS011;5407;51.234;6.804;2023-04-03T13:58:58;1.20;;;1.10;;
10711;SDS011;5407;51.234;6.804;2023-04-03T14:01:33;1.05;;;0.90;;
10711;SDS011;5407;51.234;6.804;2023-04-03T14:04:11;1.10;;;0.95;;
10711;SDS011;5407;51.234;6.804;2023-04-03T14:06:41;1.00;;;0.90;;
10711;SDS011;5407;51.234;6.804;2023-04-03T14:09:08;0.93;;;0.80;;
10711;SDS011;5407;51.234;6.804;2023-04-03T14:11:35;0.80;;;0.80;;
10711;SDS011;5407;51.234;6.804;2023-04-03T14:14:05;1.35;;;1.00;;
10711;SDS011;5407;51.234;6.804;2023-04-03T14:16:37;1.38;;;0.90;;
10711;SDS011;5407;51.234;6.804;2023-04-03T14:19:06;1.08;;;0.90;;
10711;SDS011;5407;51.234;6.804;2023-04-03T14:21:33;0.88;;;0.68;;
10711;SDS011;5407;51.234;6.804;2023-04-03T14:23:59;0.63;;;0.63;;
10711;SDS011;5407;51.234;6.804;2023-04-03T14:26:27;0.60;;;0.60;;
10711;SDS011;5407;51.234;6.804;2023-04-03T14:28:55;1.10;;;0.95;;
10711;SDS011;5407;51.234;6.804;2023-04-03T14:31:24;0.90;;;0.90;;
10711;SDS011;5407;51.234;6.804;2023-04-03T14:33:51;2.03;;;0.90;;
10711;SDS011;5407;51.234;6.804;2023-04-03T14:36:20;5.07;;;1.00;;
10711;SDS011;5407;51.234;6.804;2023-04-03T14:38:50;0.70;;;0.70;;
10711;SDS011;5407;51.234;6.804;2023-04-03T14:41:18;1.33;;;0.80;;
10711;SDS011;5407;51.234;6.804;2023-04-03T14:43:48;1.00;;;0.70;;
10711;SDS011;5407;51.234;6.804;2023-04-03T14:46:17;0.95;;;0.57;;
10711;SDS011;5407;51.234;6.804;2023-04-03T14:48:57;0.88;;;0.85;;
10711;SDS011;5407;51.234;6.804;2023-04-03T14:51:24;1.25;;;0.80;;
10711;SDS011;5407;51.234;6.804;2023-04-03T14:53:51;0.73;;;0.73;;
10711;SDS011;5407;51.234;6.804;2023-04-03T14:56:23;6.13;;;1.13;;
10711;SDS011;5407;51.234;6.804;2023-04-03T14:58:54;4.97;;;0.95;;
10711;SDS011;5407;51.234;6.804;2023-04-03T15:01:23;1.23;;;0.52;;
10711;SDS011;5407;51.234;6.804;2023-04-03T15:03:50;0.65;;;0.65;;
10711;SDS011;5407;51.234;6.804;2023-04-03T15:06:18;1.10;;;0.75;;
10711;SDS011;5407;51.234;6.804;2023-04-03T15:08:46;2.35;;;1.10;;
10711;SDS011;5407;51.234;6.804;2023-04-03T15:11:14;3.25;;;0.77;;
10711;SDS011;5407;51.234;6.804;2023-04-03T15:13:41;1.20;;;0.90;;
10711;SDS011;5407;51.234;6.804;2023-04-03T15:16:11;2.40;;;1.08;;
10711;SDS011;5407;51.234;6.804;2023-04-03T15:18:42;3.55;;;0.70;;
10711;SDS011;5407;51.234;6.804;2023-04-03T15:21:09;1.80;;;0.90;;
10711;SDS011;5407;51.234;6.804;2023-04-03T15:23:38;1.35;;;0.80;;
10711;SDS011;5407;51.234;6.804;2023-04-03T15:26:05;2.20;;;0.90;;
10711;SDS011;5407;51.234;6.804;2023-04-03T15:28:32;2.78;;;0.77;;
10711;SDS011;5407;51.234;6.804;2023-04-03T15:31:01;0.90;;;0.80;;
10711;SDS011;5407;51.234;6.804;2023-04-03T15:33:28;2.72;;;0.80;;
10711;SDS011;5407;51.234;6.804;2023-04-03T15:35:55;12.80;;;1.00;;
10711;SDS011;5407;51.234;6.804;2023-04-03T15:38:22;0.75;;;0.75;;
10711;SDS011;5407;51.234;6.804;2023-04-03T15:40:50;0.85;;;0.70;;